sensor_id;sensor_type;location;lat;lon;timestamp;P1;durP1;ratioP1;P2;durP2;ratioP2
50433;SDS011;36361;38.954;-9.002;2023-02-22T00:00:53;36.60;;;9.20;;
50433;SDS011;36361;38.954;-9.002;2023-02-22T00:01:58;35.08;;;10.20;;
50433;SDS011;36361;38.954;-9.002;2023-02-22T00:03:25;29.17;;;8.98;;
50433;SDS011;36361;38.954;-9.002;2023-02-22T00:04:27;30.25;;;9.35;;
50433;SDS011;36361;38.954;-9.002;2023-02-22T00:05:27;33.85;;;9.30;;
50433;SDS011;36361;38.954;-9.002;2023-02-22T00:06:31;33.75;;;9.57;;
50433;SDS011;36361;38.954;-9.002;2023-02-22T00:07:32;31.73;;;8.85;;
50433;SDS011;36361;38.954;-9.002;2023-02-22T00:08:34;30.17;;;9.90;;
50433;SDS011;36361;38.954;-9.002;2023-02-22T00:09:36;32.70;;;9.80;;
50433;SDS011;36361;38.954;-9.002;2023-02-22T00:10:36;31.58;;;9.50;;
50433;SDS011;36361;38.954;-9.002;2023-02-22T00:11:37;33.25;;;10.15;;
50433;SDS011;36361;38.954;-9.002;2023-02-22T00:12:39;35.55;;;9.35;;
50433;SDS011;36361;38.954;-9.002;2023-02-22T00:13:41;36.03;;;10.07;;
50433;SDS011;36361;38.954;-9.002;2023-02-22T00:14:44;34.55;;;9.15;;
50433;SDS011;36361;38.954;-9.002;2023-02-22T00:15:44;33.20;;;9.43;;
50433;SDS011;36361;38.954;-9.002;2023-02-22T00:16:45;28.33;;;8.90;;
50433;SDS011;36361;38.954;-9.002;2023-02-22T00:17:46;29.20;;;8.93;;
50433;SDS011;36361;38.954;-9.002;2023-02-22T00:18:47;23.38;;;8.38;;
50433;SDS011;36361;38.954;-9.002;2023-02-22T00:19:51;31.00;;;8.48;;
50433;SDS011;36361;38.954;-9.002;2023-02-22T00:20:59;25.15;;;8.23;;
50433;SDS011;36361;38.954;-9.002;2023-02-22T00:22:00;33.28;;;9.43;;
50433;SDS011;36361;38.954;-9.002;2023-02-22T00:23:01;26.17;;;9.38;;
50433;SDS011;36361;38.954;-9.002;2023-02-22T00:24:02;25.92;;;8.10;;
50433;SDS011;36361;38.954;-9.002;2023-02-22T00:25:22;28.52;;;8.20;;
50433;SDS011;36361;38.954;-9.002;2023-02-22T00:26:24;26.80;;;7.40;;
50433;SDS011;36361;38.954;-9.002;2023-02-22T00:27:25;31.58;;;8.40;;
50433;SDS011;36361;38.954;-9.002;2023-02-22T00:28:26;27.27;;;8.23;;
50433;SDS011;36361;38.954;-9.002;2023-02-22T00:29:27;28.40;;;8.63;;
50433;SDS011;36361;38.954;-9.002;2023-02-22T00:30:29;29.90;;;8.27;;
50433;SDS011;36361;38.954;-9.002;2023-02-22T00:31:36;26.83;;;8.77;;
50433;SDS011;36361;38.954;-9.002;2023-02-22T00:32:38;34.88;;;9.27;;
50433;SDS011;36361;38.954;-9.002;2023-02-22T00:33:39;32.38;;;8.65;;
50433;SDS011;36361;38.954;-9.002;2023-02-22T00:34:40;32.15;;;10.05;;
50433;SDS011;36361;38.954;-9.002;2023-02-22T00:35:43;25.52;;;8.10;;
50433;SDS011;36361;38.954;-9.002;2023-02-22T00:36:45;25.75;;;9.45;;
50433;SDS011;36361;38.954;-9.002;2023-02-22T00:37:47;28.77;;;8.75;;
50433;SDS011;36361;38.954;-9.002;2023-02-22T00:38:49;25.52;;;7.97;;
50433;SDS011;36361;38.954;-9.002;2023-02-22T00:39:50;33.65;;;8.07;;
50433;SDS011;36361;38.954;-9.002;2023-02-22T00:40:51;31.17;;;9.25;;
50433;SDS011;36361;38.954;-9.002;2023-02-22T00:41:52;32.03;;;8.70;;
50433;SDS011;36361;38.954;-9.002;2023-02-22T00:42:52;31.25;;;8.90;;
50433;SDS011;36361;38.954;-9.002;2023-02-22T00:43:53;31.67;;;8.68;;
50433;SDS011;36361;38.954;-9.002;2023-02-22T00:44:54;31.48;;;8.43;;
50433;SDS011;36361;38.954;-9.002;2023-02-22T00:45:54;28.52;;;8.40;;
50433;SDS011;36361;38.954;-9.002;2023-02-22T00:46:57;27.55;;;7.45;;
50433;SDS011;36361;38.954;-9.002;2023-02-22T00:47:58;30.60;;;8.05;;
50433;SDS011;36361;38.954;-9.002;2023-02-22T00:49:00;32.92;;;8.50;;
50433;SDS011;36361;38.954;-9.002;2023-02-22T00:50:01;27.23;;;9.13;;
50433;SDS011;36361;38.954;-9.002;2023-02-22T00:51:01;28.10;;;8.30;;
50433;SDS011;36361;38.954;-9.002;2023-02-22T00:52:03;29.95;;;7.22;;
50433;SDS011;36361;38.954;-9.002;2023-02-22T00:53:05;38.03;;;8.38;;
50433;SDS011;36361;38.954;-9.002;2023-02-22T00:54:08;29.00;;;7.28;;
50433;SDS011;36361;38.954;-9.002;2023-02-22T00:55:13;33.83;;;7.90;;
50433;SDS011;36361;38.954;-9.002;2023-02-22T00:56:16;27.90;;;8.57;;
50433;SDS011;36361;38.954;-9.002;2023-02-22T00:57:17;32.08;;;8.27;;
50433;SDS011;36361;38.954;-9.002;2023-02-22T00:58:19;33.33;;;7.60;;
50433;SDS011;36361;38.954;-9.002;2023-02-22T00:59:21;28.30;;;8.18;;
50433;SDS011;36361;38.954;-9.002;2023-02-22T01:00:26;34.30;;;8.30;;
50433;SDS011;36361;38.954;-9.002;2023-02-22T01:01:27;35.95;;;8.13;;
50433;SDS011;36361;38.954;-9.002;2023-02-22T01:02:28;33.58;;;8.13;;
50433;SDS011;36361;38.954;-9.002;2023-02-22T01:03:29;26.42;;;6.72;;
50433;SDS011;36361;38.954;-9.002;2023-02-22T01:04:31;32.58;;;7.63;;
50433;SDS011;36361;38.954;-9.002;2023-02-22T01:05:32;36.92;;;8.48;;
50433;SDS011;36361;38.954;-9.002;2023-02-22T01:06:33;33.83;;;8.00;;
50433;SDS011;36361;38.954;-9.002;2023-02-22T01:07:34;31.58;;;8.88;;
50433;SDS011;36361;38.954;-9.002;2023-02-22T01:08:35;34.22;;;7.95;;
50433;SDS011;36361;38.954;-9.002;2023-02-22T01:09:36;32.03;;;7.32;;
50433;SDS011;36361;38.954;-9.002;2023-02-22T01:10:38;33.90;;;7.63;;
50433;SDS011;36361;38.954;-9.002;2023-02-22T01:11:39;34.28;;;8.23;;
50433;SDS011;36361;38.954;-9.002;2023-02-22T01:12:40;23.73;;;7.22;;
50433;SDS011;36361;38.954;-9.002;2023-02-22T01:13:41;23.60;;;7.53;;
50433;SDS011;36361;38.954;-9.002;2023-02-22T01:14:44;34.50;;;7.57;;
50433;SDS011;36361;38.954;-9.002;2023-02-22T01:15:45;29.88;;;7.07;;
50433;SDS011;36361;38.954;-9.002;2023-02-22T01:16:45;34.92;;;9.18;;
50433;SDS011;36361;38.954;-9.002;2023-02-22T01:17:46;34.85;;;7.53;;
50433;SDS011;36361;38.954;-9.002;2023-02-22T01:18:48;34.90;;;7.13;;
50433;SDS011;36361;38.954;-9.002;2023-02-22T01:19:49;28.05;;;7.43;;
50433;SDS011;36361;38.954;-9.002;2023-02-22T01:20:51;28.48;;;7.80;;
50433;SDS011;36361;38.954;-9.002;2023-02-22T01:21:51;32.97;;;7.80;;
50433;SDS011;36361;38.954;-9.002;2023-02-22T01:22:55;31.27;;;7.43;;
50433;SDS011;36361;38.954;-9.002;2023-02-22T01:23:57;33.47;;;7.10;;
50433;SDS011;36361;38.954;-9.002;2023-02-22T01:24:59;29.67;;;7.53;;
50433;SDS011;36361;38.954;-9.002;2023-02-22T01:26:00;30.15;;;7.05;;
50433;SDS011;36361;38.954;-9.002;2023-02-22T01:27:03;26.70;;;7.63;;
50433;SDS011;36361;38.954;-9.002;2023-02-22T01:28:06;29.65;;;6.88;;
50433;SDS011;36361;38.954;-9.002;2023-02-22T01:29:13;26.83;;;6.53;;
50433;SDS011;36361;38.954;-9.002;2023-02-22T01:30:16;24.27;;;6.30;;
50433;SDS011;36361;38.954;-9.002;2023-02-22T01:31:25;32.58;;;7.05;;
50433;SDS011;36361;38.954;-9.002;2023-02-22T01:32:35;27.45;;;6.95;;
50433;SDS011;36361;38.954;-9.002;2023-02-22T01:33:36;31.45;;;7.50;;
50433;SDS011;36361;38.954;-9.002;2023-02-22T01:34:37;28.15;;;7.35;;
50433;SDS011;36361;38.954;-9.002;2023-02-22T01:35:44;28.95;;;7.65;;
50433;SDS011;36361;38.954;-9.002;2023-02-22T01:36:50;30.63;;;7.55;;
50433;SDS011;36361;38.954;-9.002;2023-02-22T01:37:50;34.42;;;8.60;;
50433;SDS011;36361;38.954;-9.002;2023-02-22T01:38:51;38.22;;;7.53;;
50433;SDS011;36361;38.954;-9.002;2023-02-22T01:39:54;29.88;;;7.72;;
50433;SDS011;36361;38.954;-9.002;2023-02-22T01:40:54;29.25;;;7.82;;
50433;SDS011;36361;38.954;-9.002;2023-02-22T01:41:55;32.75;;;8.07;;
50433;SDS011;36361;38.954;-9.002;2023-02-22T01:42:58;31.63;;;7.68;;
50433;SDS011;36361;38.954;-9.002;2023-02-22T01:46:51;30.63;;;8.32;;
50433;SDS011;36361;38.954;-9.002;2023-02-22T01:47:52;31.38;;;7.85;;
50433;SDS011;36361;38.954;-9.002;2023-02-22T01:49:02;22.87;;;7.43;;
50433;SDS011;36361;38.954;-9.002;2023-02-22T01:50:05;31.95;;;7.38;;
50433;SDS011;36361;38.954;-9.002;2023-02-22T01:51:16;26.00;;;7.93;;
50433;SDS011;36361;38.954;-9.002;2023-02-22T01:52:24;26.10;;;7.45;;
50433;SDS011;36361;38.954;-9.002;2023-02-22T01:53:31;26.05;;;7.32;;
50433;SDS011;36361;38.954;-9.002;2023-02-22T01:54:38;30.27;;;8.25;;
50433;SDS011;36361;38.954;-9.002;2023-02-22T01:55:42;26.17;;;9.75;;
50433;SDS011;36361;38.954;-9.002;2023-02-22T01:58:17;34.20;;;9.18;;
50433;SDS011;36361;38.954;-9.002;2023-02-22T01:59:19;29.75;;;8.90;;
50433;SDS011;36361;38.954;-9.002;2023-02-22T02:00:22;27.80;;;8.35;;
50433;SDS011;36361;38.954;-9.002;2023-02-22T02:01:26;32.13;;;8.98;;
50433;SDS011;36361;38.954;-9.002;2023-02-22T02:02:29;32.35;;;7.35;;
50433;SDS011;36361;38.954;-9.002;2023-02-22T02:03:31;33.15;;;8.23;;
50433;SDS011;36361;38.954;-9.002;2023-02-22T02:04:35;34.85;;;10.57;;
50433;SDS011;36361;38.954;-9.002;2023-02-22T02:05:36;31.42;;;9.02;;
50433;SDS011;36361;38.954;-9.002;2023-02-22T02:06:38;35.42;;;9.98;;
50433;SDS011;36361;38.954;-9.002;2023-02-22T02:07:41;31.88;;;8.57;;
50433;SDS011;36361;38.954;-9.002;2023-02-22T02:08:51;30.80;;;8.75;;
50433;SDS011;36361;38.954;-9.002;2023-02-22T02:09:59;34.78;;;8.90;;
50433;SDS011;36361;38.954;-9.002;2023-02-22T02:11:06;26.60;;;8.15;;
50433;SDS011;36361;38.954;-9.002;2023-02-22T02:12:09;29.05;;;8.05;;
50433;SDS011;36361;38.954;-9.002;2023-02-22T02:13:11;29.52;;;7.43;;
50433;SDS011;36361;38.954;-9.002;2023-02-22T02:14:12;37.67;;;8.35;;
50433;SDS011;36361;38.954;-9.002;2023-02-22T02:15:26;33.90;;;7.38;;
50433;SDS011;36361;38.954;-9.002;2023-02-22T02:17:53;22.45;;;6.13;;
50433;SDS011;36361;38.954;-9.002;2023-02-22T02:18:56;24.77;;;7.13;;
50433;SDS011;36361;38.954;-9.002;2023-02-22T02:22:48;26.90;;;6.95;;
50433;SDS011;36361;38.954;-9.002;2023-02-22T02:29:35;31.97;;;7.47;;
50433;SDS011;36361;38.954;-9.002;2023-02-22T02:33:43;22.57;;;6.10;;
50433;SDS011;36361;38.954;-9.002;2023-02-22T02:34:59;30.13;;;8.25;;
50433;SDS011;36361;38.954;-9.002;2023-02-22T02:36:04;21.27;;;7.00;;
50433;SDS011;36361;38.954;-9.002;2023-02-22T02:37:11;32.20;;;7.67;;
50433;SDS011;36361;38.954;-9.002;2023-02-22T02:40:19;31.70;;;8.00;;
50433;SDS011;36361;38.954;-9.002;2023-02-22T02:41:49;30.37;;;7.43;;
50433;SDS011;36361;38.954;-9.002;2023-02-22T02:42:57;34.87;;;8.43;;
50433;SDS011;36361;38.954;-9.002;2023-02-22T02:45:12;25.87;;;7.03;;
50433;SDS011;36361;38.954;-9.002;2023-02-22T02:46:40;28.13;;;7.57;;
50433;SDS011;36361;38.954;-9.002;2023-02-22T02:47:46;26.37;;;7.77;;
50433;SDS011;36361;38.954;-9.002;2023-02-22T02:48:53;31.20;;;7.40;;
50433;SDS011;36361;38.954;-9.002;2023-02-22T02:50:05;30.05;;;7.88;;
50433;SDS011;36361;38.954;-9.002;2023-02-22T02:51:10;27.80;;;8.00;;
50433;SDS011;36361;38.954;-9.002;2023-02-22T02:52:17;31.27;;;7.30;;
50433;SDS011;36361;38.954;-9.002;2023-02-22T02:53:21;31.57;;;8.17;;
50433;SDS011;36361;38.954;-9.002;2023-02-22T02:54:27;37.75;;;8.70;;
50433;SDS011;36361;38.954;-9.002;2023-02-22T02:55:28;40.03;;;8.70;;
50433;SDS011;36361;38.954;-9.002;2023-02-22T02:56:32;29.57;;;8.63;;
50433;SDS011;36361;38.954;-9.002;2023-02-22T02:57:35;35.37;;;9.03;;
50433;SDS011;36361;38.954;-9.002;2023-02-22T02:58:42;29.50;;;8.17;;
50433;SDS011;36361;38.954;-9.002;2023-02-22T02:59:48;37.13;;;9.15;;
50433;SDS011;36361;38.954;-9.002;2023-02-22T03:00:51;31.92;;;8.98;;
50433;SDS011;36361;38.954;-9.002;2023-02-22T03:03:34;34.55;;;9.20;;
50433;SDS011;36361;38.954;-9.002;2023-02-22T03:04:52;27.92;;;7.88;;
50433;SDS011;36361;38.954;-9.002;2023-02-22T03:09:06;23.27;;;6.82;;
50433;SDS011;36361;38.954;-9.002;2023-02-22T03:11:35;34.58;;;8.70;;
50433;SDS011;36361;38.954;-9.002;2023-02-22T03:12:51;33.67;;;8.63;;
50433;SDS011;36361;38.954;-9.002;2023-02-22T03:16:32;35.35;;;8.40;;
50433;SDS011;36361;38.954;-9.002;2023-02-22T03:21:44;32.47;;;7.47;;
50433;SDS011;36361;38.954;-9.002;2023-02-22T03:23:21;29.17;;;8.02;;
50433;SDS011;36361;38.954;-9.002;2023-02-22T03:24:48;26.15;;;8.70;;
50433;SDS011;36361;38.954;-9.002;2023-02-22T03:26:20;29.85;;;7.95;;
50433;SDS011;36361;38.954;-9.002;2023-02-22T03:27:31;32.30;;;8.63;;
50433;SDS011;36361;38.954;-9.002;2023-02-22T03:28:43;29.55;;;8.65;;
50433;SDS011;36361;38.954;-9.002;2023-02-22T03:29:47;29.58;;;8.05;;
50433;SDS011;36361;38.954;-9.002;2023-02-22T03:31:02;37.70;;;8.35;;
50433;SDS011;36361;38.954;-9.002;2023-02-22T03:32:12;26.55;;;8.10;;
50433;SDS011;36361;38.954;-9.002;2023-02-22T03:33:17;31.13;;;8.50;;
50433;SDS011;36361;38.954;-9.002;2023-02-22T03:34:23;31.77;;;8.35;;
50433;SDS011;36361;38.954;-9.002;2023-02-22T03:35:30;33.90;;;9.15;;
50433;SDS011;36361;38.954;-9.002;2023-02-22T03:36:56;29.55;;;8.15;;
50433;SDS011;36361;38.954;-9.002;2023-02-22T03:37:59;32.15;;;8.85;;
50433;SDS011;36361;38.954;-9.002;2023-02-22T03:39:03;28.67;;;8.35;;
50433;SDS011;36361;38.954;-9.002;2023-02-22T03:40:09;30.73;;;8.63;;
50433;SDS011;36361;38.954;-9.002;2023-02-22T03:41:16;26.20;;;8.95;;
50433;SDS011;36361;38.954;-9.002;2023-02-22T03:42:24;29.55;;;8.98;;
50433;SDS011;36361;38.954;-9.002;2023-02-22T03:43:31;23.33;;;8.57;;
50433;SDS011;36361;38.954;-9.002;2023-02-22T03:44:39;34.85;;;8.85;;
50433;SDS011;36361;38.954;-9.002;2023-02-22T03:45:43;35.25;;;9.52;;
50433;SDS011;36361;38.954;-9.002;2023-02-22T03:46:51;33.90;;;9.82;;
50433;SDS011;36361;38.954;-9.002;2023-02-22T03:48:02;28.20;;;8.40;;
50433;SDS011;36361;38.954;-9.002;2023-02-22T03:50:44;32.67;;;9.27;;
50433;SDS011;36361;38.954;-9.002;2023-02-22T03:51:45;30.23;;;9.43;;
50433;SDS011;36361;38.954;-9.002;2023-02-22T03:52:47;28.98;;;8.52;;
50433;SDS011;36361;38.954;-9.002;2023-02-22T03:53:56;33.70;;;9.02;;
50433;SDS011;36361;38.954;-9.002;2023-02-22T03:55:00;34.05;;;9.25;;
50433;SDS011;36361;38.954;-9.002;2023-02-22T03:56:02;31.75;;;8.63;;
50433;SDS011;36361;38.954;-9.002;2023-02-22T03:57:18;31.27;;;9.35;;
50433;SDS011;36361;38.954;-9.002;2023-02-22T03:58:33;28.65;;;7.70;;
50433;SDS011;36361;38.954;-9.002;2023-02-22T03:59:35;26.80;;;7.70;;
50433;SDS011;36361;38.954;-9.002;2023-02-22T04:00:36;32.33;;;8.88;;
50433;SDS011;36361;38.954;-9.002;2023-02-22T04:01:37;34.10;;;8.98;;
50433;SDS011;36361;38.954;-9.002;2023-02-22T04:02:39;28.30;;;9.18;;
50433;SDS011;36361;38.954;-9.002;2023-02-22T04:03:44;33.30;;;9.67;;
50433;SDS011;36361;38.954;-9.002;2023-02-22T04:04:45;30.40;;;8.10;;
50433;SDS011;36361;38.954;-9.002;2023-02-22T04:05:47;30.83;;;9.30;;
50433;SDS011;36361;38.954;-9.002;2023-02-22T04:06:49;35.13;;;8.90;;
50433;SDS011;36361;38.954;-9.002;2023-02-22T04:07:54;28.23;;;8.45;;
50433;SDS011;36361;38.954;-9.002;2023-02-22T04:08:56;29.93;;;9.80;;
50433;SDS011;36361;38.954;-9.002;2023-02-22T04:09:57;35.03;;;9.43;;
50433;SDS011;36361;38.954;-9.002;2023-02-22T04:10:57;33.88;;;8.75;;
50433;SDS011;36361;38.954;-9.002;2023-02-22T04:12:00;32.40;;;8.87;;
50433;SDS011;36361;38.954;-9.002;2023-02-22T04:13:02;32.90;;;10.00;;
50433;SDS011;36361;38.954;-9.002;2023-02-22T04:14:07;25.83;;;8.20;;
50433;SDS011;36361;38.954;-9.002;2023-02-22T04:15:10;38.07;;;8.97;;
50433;SDS011;36361;38.954;-9.002;2023-02-22T04:16:15;28.27;;;8.70;;
50433;SDS011;36361;38.954;-9.002;2023-02-22T04:17:16;27.02;;;9.27;;
50433;SDS011;36361;38.954;-9.002;2023-02-22T04:18:17;25.70;;;7.90;;
50433;SDS011;36361;38.954;-9.002;2023-02-22T04:19:20;28.43;;;8.00;;
50433;SDS011;36361;38.954;-9.002;2023-02-22T04:20:20;30.10;;;7.97;;
50433;SDS011;36361;38.954;-9.002;2023-02-22T04:21:29;29.38;;;9.85;;
50433;SDS011;36361;38.954;-9.002;2023-02-22T04:22:29;30.63;;;8.40;;
50433;SDS011;36361;38.954;-9.002;2023-02-22T04:23:30;41.90;;;8.70;;
50433;SDS011;36361;38.954;-9.002;2023-02-22T04:24:38;34.85;;;8.55;;
50433;SDS011;36361;38.954;-9.002;2023-02-22T04:25:39;34.35;;;8.43;;
50433;SDS011;36361;38.954;-9.002;2023-02-22T04:26:47;30.73;;;8.13;;
50433;SDS011;36361;38.954;-9.002;2023-02-22T04:27:51;26.90;;;8.02;;
50433;SDS011;36361;38.954;-9.002;2023-02-22T04:28:57;34.42;;;7.82;;
50433;SDS011;36361;38.954;-9.002;2023-02-22T04:30:02;28.87;;;7.63;;
50433;SDS011;36361;38.954;-9.002;2023-02-22T04:31:05;29.73;;;7.77;;
50433;SDS011;36361;38.954;-9.002;2023-02-22T04:32:06;25.43;;;7.30;;
50433;SDS011;36361;38.954;-9.002;2023-02-22T04:33:07;28.83;;;8.10;;
50433;SDS011;36361;38.954;-9.002;2023-02-22T04:34:15;29.83;;;8.35;;
50433;SDS011;36361;38.954;-9.002;2023-02-22T04:35:16;30.38;;;8.32;;
50433;SDS011;36361;38.954;-9.002;2023-02-22T04:36:17;25.63;;;7.85;;
50433;SDS011;36361;38.954;-9.002;2023-02-22T04:37:19;26.17;;;8.68;;
50433;SDS011;36361;38.954;-9.002;2023-02-22T04:38:19;27.13;;;7.57;;
50433;SDS011;36361;38.954;-9.002;2023-02-22T04:40:29;25.75;;;7.50;;
50433;SDS011;36361;38.954;-9.002;2023-02-22T04:41:30;29.52;;;8.48;;
50433;SDS011;36361;38.954;-9.002;2023-02-22T04:42:31;27.85;;;7.47;;
50433;SDS011;36361;38.954;-9.002;2023-02-22T04:43:32;25.40;;;7.40;;
50433;SDS011;36361;38.954;-9.002;2023-02-22T04:44:44;24.63;;;6.83;;
50433;SDS011;36361;38.954;-9.002;2023-02-22T04:45:45;39.42;;;8.18;;
50433;SDS011;36361;38.954;-9.002;2023-02-22T04:46:46;21.33;;;6.28;;
50433;SDS011;36361;38.954;-9.002;2023-02-22T04:47:48;28.33;;;7.90;;
50433;SDS011;36361;38.954;-9.002;2023-02-22T04:48:50;26.92;;;7.53;;
50433;SDS011;36361;38.954;-9.002;2023-02-22T04:49:55;33.63;;;8.38;;
50433;SDS011;36361;38.954;-9.002;2023-02-22T04:50:56;28.43;;;7.37;;
50433;SDS011;36361;38.954;-9.002;2023-02-22T04:51:57;27.67;;;7.43;;
50433;SDS011;36361;38.954;-9.002;2023-02-22T04:53:06;35.67;;;8.95;;
50433;SDS011;36361;38.954;-9.002;2023-02-22T04:54:10;32.08;;;8.07;;
50433;SDS011;36361;38.954;-9.002;2023-02-22T04:55:17;22.30;;;7.50;;
50433;SDS011;36361;38.954;-9.002;2023-02-22T04:56:17;31.35;;;8.00;;
50433;SDS011;36361;38.954;-9.002;2023-02-22T04:57:19;29.15;;;8.38;;
50433;SDS011;36361;38.954;-9.002;2023-02-22T04:58:20;31.63;;;8.60;;
50433;SDS011;36361;38.954;-9.002;2023-02-22T04:59:22;24.90;;;7.13;;
50433;SDS011;36361;38.954;-9.002;2023-02-22T05:00:28;29.88;;;7.95;;
50433;SDS011;36361;38.954;-9.002;2023-02-22T05:01:33;25.65;;;6.45;;
50433;SDS011;36361;38.954;-9.002;2023-02-22T05:02:38;24.73;;;8.30;;
50433;SDS011;36361;38.954;-9.002;2023-02-22T05:03:40;24.65;;;6.32;;
50433;SDS011;36361;38.954;-9.002;2023-02-22T05:04:40;28.70;;;7.80;;
50433;SDS011;36361;38.954;-9.002;2023-02-22T05:05:41;27.50;;;7.40;;
50433;SDS011;36361;38.954;-9.002;2023-02-22T05:06:42;28.35;;;7.35;;
50433;SDS011;36361;38.954;-9.002;2023-02-22T05:07:43;29.92;;;7.78;;
50433;SDS011;36361;38.954;-9.002;2023-02-22T05:08:44;31.90;;;8.20;;
50433;SDS011;36361;38.954;-9.002;2023-02-22T05:09:45;24.13;;;7.10;;
50433;SDS011;36361;38.954;-9.002;2023-02-22T05:10:45;27.97;;;7.63;;
50433;SDS011;36361;38.954;-9.002;2023-02-22T05:11:46;30.70;;;7.70;;
50433;SDS011;36361;38.954;-9.002;2023-02-22T05:12:47;29.58;;;8.00;;
50433;SDS011;36361;38.954;-9.002;2023-02-22T05:13:47;22.80;;;7.10;;
50433;SDS011;36361;38.954;-9.002;2023-02-22T05:14:48;32.47;;;7.93;;
50433;SDS011;36361;38.954;-9.002;2023-02-22T05:15:49;24.33;;;6.63;;
50433;SDS011;36361;38.954;-9.002;2023-02-22T05:16:49;28.80;;;7.73;;
50433;SDS011;36361;38.954;-9.002;2023-02-22T05:17:51;31.30;;;7.27;;
50433;SDS011;36361;38.954;-9.002;2023-02-22T05:18:52;28.73;;;7.95;;
50433;SDS011;36361;38.954;-9.002;2023-02-22T05:19:56;23.63;;;7.43;;
50433;SDS011;36361;38.954;-9.002;2023-02-22T05:20:56;29.23;;;7.73;;
50433;SDS011;36361;38.954;-9.002;2023-02-22T05:21:57;34.03;;;8.23;;
50433;SDS011;36361;38.954;-9.002;2023-02-22T05:22:58;32.87;;;8.43;;
50433;SDS011;36361;38.954;-9.002;2023-02-22T05:24:00;26.40;;;6.60;;
50433;SDS011;36361;38.954;-9.002;2023-02-22T05:25:01;27.40;;;7.63;;
50433;SDS011;36361;38.954;-9.002;2023-02-22T05:26:02;27.63;;;7.07;;
50433;SDS011;36361;38.954;-9.002;2023-02-22T05:27:03;29.40;;;7.00;;
50433;SDS011;36361;38.954;-9.002;2023-02-22T05:28:08;23.07;;;6.37;;
50433;SDS011;36361;38.954;-9.002;2023-02-22T05:29:12;22.53;;;7.17;;
50433;SDS011;36361;38.954;-9.002;2023-02-22T05:30:13;26.47;;;6.63;;
50433;SDS011;36361;38.954;-9.002;2023-02-22T05:31:13;28.73;;;6.77;;
50433;SDS011;36361;38.954;-9.002;2023-02-22T05:32:14;26.27;;;7.80;;
50433;SDS011;36361;38.954;-9.002;2023-02-22T05:33:15;29.40;;;6.93;;
50433;SDS011;36361;38.954;-9.002;2023-02-22T05:34:16;23.00;;;6.05;;
50433;SDS011;36361;38.954;-9.002;2023-02-22T05:35:17;24.73;;;7.40;;
50433;SDS011;36361;38.954;-9.002;2023-02-22T05:36:19;31.03;;;7.50;;
50433;SDS011;36361;38.954;-9.002;2023-02-22T05:37:20;28.13;;;7.03;;
50433;SDS011;36361;38.954;-9.002;2023-02-22T05:38:21;29.63;;;7.30;;
50433;SDS011;36361;38.954;-9.002;2023-02-22T05:39:22;24.80;;;7.07;;
50433;SDS011;36361;38.954;-9.002;2023-02-22T05:40:23;22.47;;;6.80;;
50433;SDS011;36361;38.954;-9.002;2023-02-22T05:41:26;22.60;;;6.23;;
50433;SDS011;36361;38.954;-9.002;2023-02-22T05:42:27;21.50;;;6.63;;
50433;SDS011;36361;38.954;-9.002;2023-02-22T05:43:28;22.57;;;6.60;;
50433;SDS011;36361;38.954;-9.002;2023-02-22T05:44:28;23.83;;;6.47;;
50433;SDS011;36361;38.954;-9.002;2023-02-22T05:45:30;28.00;;;7.03;;
50433;SDS011;36361;38.954;-9.002;2023-02-22T05:46:30;21.97;;;6.07;;
50433;SDS011;36361;38.954;-9.002;2023-02-22T05:47:31;21.80;;;6.10;;
50433;SDS011;36361;38.954;-9.002;2023-02-22T05:48:32;25.93;;;6.00;;
50433;SDS011;36361;38.954;-9.002;2023-02-22T05:49:33;21.53;;;6.20;;
50433;SDS011;36361;38.954;-9.002;2023-02-22T05:50:34;21.58;;;6.88;;
50433;SDS011;36361;38.954;-9.002;2023-02-22T05:51:34;18.80;;;6.13;;
50433;SDS011;36361;38.954;-9.002;2023-02-22T05:52:35;20.13;;;5.50;;
50433;SDS011;36361;38.954;-9.002;2023-02-22T05:53:36;17.80;;;5.05;;
50433;SDS011;36361;38.954;-9.002;2023-02-22T05:54:38;19.83;;;5.38;;
50433;SDS011;36361;38.954;-9.002;2023-02-22T05:55:39;21.17;;;5.97;;
50433;SDS011;36361;38.954;-9.002;2023-02-22T05:56:39;25.60;;;5.90;;
50433;SDS011;36361;38.954;-9.002;2023-02-22T05:57:40;19.50;;;5.60;;
50433;SDS011;36361;38.954;-9.002;2023-02-22T05:58:41;17.58;;;5.65;;
50433;SDS011;36361;38.954;-9.002;2023-02-22T05:59:41;16.48;;;4.68;;
50433;SDS011;36361;38.954;-9.002;2023-02-22T06:00:42;16.98;;;5.32;;
50433;SDS011;36361;38.954;-9.002;2023-02-22T06:01:43;18.27;;;5.15;;
50433;SDS011;36361;38.954;-9.002;2023-02-22T06:02:43;17.50;;;4.35;;
50433;SDS011;36361;38.954;-9.002;2023-02-22T06:03:48;22.13;;;5.50;;
50433;SDS011;36361;38.954;-9.002;2023-02-22T06:04:49;13.35;;;4.90;;
50433;SDS011;36361;38.954;-9.002;2023-02-22T06:05:50;16.58;;;4.60;;
50433;SDS011;36361;38.954;-9.002;2023-02-22T06:06:50;15.35;;;5.05;;
50433;SDS011;36361;38.954;-9.002;2023-02-22T06:07:55;16.15;;;4.80;;
50433;SDS011;36361;38.954;-9.002;2023-02-22T06:08:56;15.05;;;4.45;;
50433;SDS011;36361;38.954;-9.002;2023-02-22T06:09:57;18.02;;;4.70;;
50433;SDS011;36361;38.954;-9.002;2023-02-22T06:10:58;18.25;;;4.80;;
50433;SDS011;36361;38.954;-9.002;2023-02-22T06:11:58;14.43;;;3.90;;
50433;SDS011;36361;38.954;-9.002;2023-02-22T06:13:00;16.63;;;4.32;;
50433;SDS011;36361;38.954;-9.002;2023-02-22T06:14:01;12.93;;;3.83;;
50433;SDS011;36361;38.954;-9.002;2023-02-22T06:15:01;17.33;;;5.38;;
50433;SDS011;36361;38.954;-9.002;2023-02-22T06:16:02;16.33;;;4.53;;
50433;SDS011;36361;38.954;-9.002;2023-02-22T06:17:03;21.02;;;4.63;;
50433;SDS011;36361;38.954;-9.002;2023-02-22T06:18:05;19.85;;;5.05;;
50433;SDS011;36361;38.954;-9.002;2023-02-22T06:19:06;20.05;;;4.82;;
50433;SDS011;36361;38.954;-9.002;2023-02-22T06:20:10;19.15;;;5.68;;
50433;SDS011;36361;38.954;-9.002;2023-02-22T06:21:13;22.55;;;5.25;;
50433;SDS011;36361;38.954;-9.002;2023-02-22T06:22:17;16.15;;;4.28;;
50433;SDS011;36361;38.954;-9.002;2023-02-22T06:23:19;14.77;;;4.43;;
50433;SDS011;36361;38.954;-9.002;2023-02-22T06:24:22;13.95;;;4.38;;
50433;SDS011;36361;38.954;-9.002;2023-02-22T06:25:27;20.42;;;4.78;;
50433;SDS011;36361;38.954;-9.002;2023-02-22T06:26:32;16.02;;;4.43;;
50433;SDS011;36361;38.954;-9.002;2023-02-22T06:27:33;22.33;;;6.03;;
50433;SDS011;36361;38.954;-9.002;2023-02-22T06:28:34;18.15;;;5.00;;
50433;SDS011;36361;38.954;-9.002;2023-02-22T06:29:35;17.00;;;4.30;;
50433;SDS011;36361;38.954;-9.002;2023-02-22T06:30:35;16.15;;;4.88;;
50433;SDS011;36361;38.954;-9.002;2023-02-22T06:31:36;16.92;;;4.38;;
50433;SDS011;36361;38.954;-9.002;2023-02-22T06:32:37;15.23;;;4.60;;
50433;SDS011;36361;38.954;-9.002;2023-02-22T06:33:38;13.75;;;4.28;;
50433;SDS011;36361;38.954;-9.002;2023-02-22T06:34:39;19.75;;;4.43;;
50433;SDS011;36361;38.954;-9.002;2023-02-22T06:35:42;15.38;;;4.10;;
50433;SDS011;36361;38.954;-9.002;2023-02-22T06:36:44;13.30;;;3.38;;
50433;SDS011;36361;38.954;-9.002;2023-02-22T06:37:47;20.02;;;4.97;;
50433;SDS011;36361;38.954;-9.002;2023-02-22T06:38:47;17.25;;;5.53;;
50433;SDS011;36361;38.954;-9.002;2023-02-22T06:39:48;16.05;;;4.25;;
50433;SDS011;36361;38.954;-9.002;2023-02-22T06:40:49;16.88;;;4.70;;
50433;SDS011;36361;38.954;-9.002;2023-02-22T06:41:50;19.40;;;4.63;;
50433;SDS011;36361;38.954;-9.002;2023-02-22T06:42:51;13.82;;;5.07;;
50433;SDS011;36361;38.954;-9.002;2023-02-22T06:43:52;17.27;;;4.80;;
50433;SDS011;36361;38.954;-9.002;2023-02-22T06:44:53;19.85;;;4.40;;
50433;SDS011;36361;38.954;-9.002;2023-02-22T06:45:54;18.13;;;4.15;;
50433;SDS011;36361;38.954;-9.002;2023-02-22T06:46:55;11.50;;;3.53;;
50433;SDS011;36361;38.954;-9.002;2023-02-22T06:47:55;14.23;;;4.45;;